createdAt,value
2023-02-01T00:01:37.841Z,2.07
2023-02-01T00:04:06.600Z,1.98
2023-02-01T00:06:34.813Z,2.00
2023-02-01T00:09:03.297Z,1.99
2023-02-01T00:11:31.616Z,1.96
2023-02-01T00:14:00.037Z,1.92
2023-02-01T00:16:32.052Z,2.04
2023-02-01T00:19:03.463Z,1.99
2023-02-01T00:21:32.550Z,2.13
2023-02-01T00:24:01.326Z,1.09
2023-02-01T00:26:55.304Z,2.08
2023-02-01T00:29:24.297Z,2.04
2023-02-01T00:31:54.207Z,2.09
2023-02-01T00:34:23.381Z,2.05
2023-02-01T00:36:52.201Z,2.14
2023-02-01T00:39:20.459Z,2.00
2023-02-01T00:41:48.717Z,2.00
2023-02-01T00:44:17.142Z,1.98
2023-02-01T00:46:45.457Z,2.04
2023-02-01T00:49:15.053Z,2.69
2023-02-01T00:51:43.283Z,2.08
2023-02-01T00:54:11.457Z,2.06
2023-02-01T00:56:39.676Z,1.98
2023-02-01T00:59:07.866Z,1.91
2023-02-01T01:01:36.461Z,2.12
2023-02-01T01:04:35.211Z,2.01
2023-02-01T01:07:04.261Z,2.05
2023-02-01T01:09:32.456Z,2.13
2023-02-01T01:12:03.455Z,1.95
2023-02-01T01:14:33.171Z,1.91
2023-02-01T01:17:25.092Z,1.96
2023-02-01T01:19:54.687Z,1.84
2023-02-01T01:22:23.013Z,1.88
2023-02-01T01:24:51.366Z,1.80
2023-02-01T01:27:24.381Z,1.82
2023-02-01T01:29:52.673Z,1.82
2023-02-01T01:32:20.894Z,1.88
2023-02-01T01:34:49.106Z,1.82
2023-02-01T01:37:18.671Z,1.81
2023-02-01T01:39:46.894Z,1.85
2023-02-01T01:42:15.170Z,1.02
2023-02-01T01:45:05.726Z,1.84
2023-02-01T01:47:40.871Z,1.77
2023-02-01T01:50:12.557Z,1.90
2023-02-01T01:52:45.011Z,1.90
2023-02-01T01:55:15.322Z,1.88
2023-02-01T01:57:47.716Z,1.85
2023-02-01T02:00:20.681Z,1.87
2023-02-01T02:03:06.054Z,1.76
2023-02-01T02:05:34.287Z,1.87
2023-02-01T02:08:03.938Z,1.97
2023-02-01T02:10:47.387Z,2.44
2023-02-01T02:13:16.773Z,1.86
2023-02-01T02:15:53.993Z,1.88
2023-02-01T02:18:30.483Z,1.18
2023-02-01T02:21:14.788Z,1.81
2023-02-01T02:24:23.893Z,1.77
2023-02-01T02:27:23.965Z,1.95
2023-02-01T02:30:43.001Z,1.90
2023-02-01T02:33:44.160Z,1.86
2023-02-01T02:36:19.960Z,1.85
2023-02-01T02:39:02.069Z,1.82
2023-02-01T02:41:55.680Z,1.86
2023-02-01T02:44:51.346Z,1.91
2023-02-01T02:47:28.820Z,1.87
2023-02-01T02:50:24.765Z,1.88
2023-02-01T02:53:18.798Z,1.82
2023-02-01T02:55:47.958Z,1.86
2023-02-01T02:58:35.755Z,1.87
2023-02-01T03:01:23.337Z,1.83
2023-02-01T03:04:09.791Z,1.93
2023-02-01T03:06:41.914Z,1.88
2023-02-01T03:09:17.807Z,1.96
2023-02-01T03:12:07.810Z,1.86
2023-02-01T03:14:38.604Z,1.80
2023-02-01T03:17:14.071Z,1.91
2023-02-01T03:19:50.299Z,1.86
2023-02-01T03:22:25.829Z,1.95
2023-02-01T03:24:58.756Z,1.93
2023-02-01T03:27:34.553Z,1.82
2023-02-01T03:30:10.597Z,1.85
2023-02-01T03:32:56.070Z,1.85
2023-02-01T03:35:30.862Z,1.95
2023-02-01T03:38:09.186Z,1.89
2023-02-01T03:40:41.738Z,1.96
2023-02-01T03:43:16.068Z,1.98
2023-02-01T03:45:47.378Z,1.91
2023-02-01T03:48:16.979Z,1.87
2023-02-01T03:50:50.696Z,1.86
2023-02-01T03:53:24.480Z,1.84
2023-02-01T03:55:54.553Z,1.97
2023-02-01T03:58:24.939Z,2.02
2023-02-01T04:00:56.166Z,1.57
2023-02-01T04:03:25.901Z,2.00
2023-02-01T04:05:55.118Z,1.95
2023-02-01T04:08:28.572Z,2.09
2023-02-01T04:10:56.757Z,2.05
2023-02-01T04:13:24.948Z,1.99
2023-02-01T04:15:53.122Z,2.14
2023-02-01T04:18:21.332Z,2.16
2023-02-01T04:20:49.907Z,2.09
2023-02-01T04:23:18.091Z,2.05
2023-02-01T04:25:47.722Z,2.21
2023-02-01T04:28:16.329Z,2.09
2023-02-01T04:30:44.610Z,2.19
2023-02-01T04:33:14.973Z,2.16
2023-02-01T04:35:43.405Z,2.23
2023-02-01T04:38:11.611Z,2.20
2023-02-01T04:40:39.830Z,2.28
2023-02-01T04:43:09.447Z,2.26
2023-02-01T04:45:37.673Z,2.08
2023-02-01T04:48:06.729Z,2.09
2023-02-01T04:50:34.903Z,2.20
2023-02-01T04:53:03.191Z,2.11
2023-02-01T04:55:31.705Z,2.32
2023-02-01T04:58:00.016Z,2.25
2023-02-01T05:00:29.701Z,2.32
2023-02-01T05:05:50.554Z,2.17
2023-02-01T05:08:18.750Z,2.31
2023-02-01T05:10:47.454Z,2.31
2023-02-01T05:13:29.579Z,2.35
2023-02-01T05:15:59.172Z,2.41
2023-02-01T05:18:27.415Z,2.24
2023-02-01T05:20:55.624Z,2.26
2023-02-01T05:23:23.820Z,2.33
2023-02-01T05:25:51.996Z,2.31
2023-02-01T05:28:20.211Z,2.25
2023-02-01T05:30:49.195Z,2.27
2023-02-01T05:33:18.811Z,2.33
2023-02-01T05:35:46.961Z,2.49
2023-02-01T05:38:15.535Z,2.30
2023-02-01T05:40:43.705Z,2.36
2023-02-01T05:43:11.926Z,2.29
2023-02-01T05:45:40.104Z,2.45
2023-02-01T05:48:08.303Z,2.41
2023-02-01T05:50:37.862Z,2.49
2023-02-01T05:53:10.746Z,2.55
2023-02-01T05:55:39.374Z,2.42
2023-02-01T05:58:07.788Z,2.36
2023-02-01T06:00:36.027Z,2.53
2023-02-01T06:03:04.508Z,2.44
2023-02-01T06:05:40.193Z,2.57
2023-02-01T06:08:08.592Z,2.48
2023-02-01T06:10:36.837Z,2.44
2023-02-01T06:13:05.207Z,2.47
2023-02-01T06:15:33.563Z,2.46
2023-02-01T06:18:01.794Z,2.34
2023-02-01T06:20:29.954Z,2.33
2023-02-01T06:22:59.479Z,2.50
2023-02-01T06:25:27.686Z,2.48
2023-02-01T06:27:55.891Z,2.54
2023-02-01T06:30:24.319Z,2.53
2023-02-01T06:32:54.874Z,2.63
2023-02-01T06:35:23.064Z,2.64
2023-02-01T06:37:51.228Z,2.69
2023-02-01T06:40:21.372Z,2.60
2023-02-01T06:42:51.185Z,2.65
2023-02-01T06:45:19.669Z,2.60
2023-02-01T06:47:48.426Z,2.63
2023-02-01T06:50:17.606Z,2.69
2023-02-01T06:52:45.865Z,2.80
2023-02-01T06:55:14.401Z,2.78
2023-02-01T06:57:44.276Z,2.72
2023-02-01T07:00:13.963Z,2.84
2023-02-01T07:02:42.250Z,2.78
2023-02-01T07:05:14.056Z,2.74
2023-02-01T07:07:43.268Z,2.73
2023-02-01T07:10:12.915Z,2.73
2023-02-01T07:12:41.280Z,2.80
2023-02-01T07:15:12.252Z,2.77
2023-02-01T07:17:40.501Z,2.73
2023-02-01T07:20:10.844Z,2.77
2023-02-01T07:22:39.038Z,2.83
2023-02-01T07:25:08.711Z,2.70
2023-02-01T07:27:37.118Z,2.71
2023-02-01T07:30:07.052Z,2.59
2023-02-01T07:32:36.762Z,2.67
2023-02-01T07:35:05.363Z,2.61
2023-02-01T07:37:33.575Z,2.68
2023-02-01T07:40:01.762Z,2.65
2023-02-01T07:42:29.942Z,2.65
2023-02-01T07:45:07.862Z,2.55
2023-02-01T07:47:44.451Z,2.68
2023-02-01T07:50:12.944Z,2.54
2023-02-01T07:52:41.722Z,2.61
2023-02-01T07:55:11.151Z,2.62
2023-02-01T07:57:47.183Z,2.70
2023-02-01T08:00:34.656Z,2.79
2023-02-01T08:03:06.513Z,2.77
2023-02-01T08:05:34.709Z,2.67
2023-02-01T08:08:02.964Z,2.71
2023-02-01T08:10:31.151Z,2.87
2023-02-01T08:13:01.904Z,2.78
2023-02-01T08:15:31.056Z,2.81
2023-02-01T08:17:59.653Z,2.78
2023-02-01T08:20:29.333Z,3.46
2023-02-01T08:22:57.566Z,2.81
2023-02-01T08:25:26.549Z,2.87
2023-02-01T08:27:55.387Z,2.87
2023-02-01T08:30:24.159Z,2.83
2023-02-01T08:32:52.580Z,2.92
2023-02-01T08:35:22.295Z,2.94
2023-02-01T08:37:53.502Z,2.85
2023-02-01T08:40:22.869Z,3.00
2023-02-01T08:42:54.854Z,2.95
2023-02-01T08:45:26.208Z,3.00
2023-02-01T08:47:55.169Z,2.98
2023-02-01T08:50:25.670Z,3.10
2023-02-01T08:52:56.035Z,3.06
2023-02-01T08:55:24.282Z,3.02
2023-02-01T08:57:52.575Z,3.04
2023-02-01T09:00:21.428Z,3.05
2023-02-01T09:02:49.942Z,3.08
2023-02-01T09:05:20.213Z,3.06
2023-02-01T09:07:49.176Z,2.98
2023-02-01T09:10:33.424Z,3.06
2023-02-01T09:13:04.039Z,3.25
2023-02-01T09:15:33.632Z,3.10
2023-02-01T09:18:02.199Z,3.16
2023-02-01T09:20:30.511Z,3.09
2023-02-01T09:22:58.841Z,3.12
2023-02-01T09:25:28.548Z,3.08
2023-02-01T09:27:56.742Z,3.17
2023-02-01T09:30:25.490Z,3.15
2023-02-01T09:32:53.939Z,3.20
2023-02-01T09:35:22.085Z,3.24
2023-02-01T09:37:50.327Z,3.21
2023-02-01T09:40:19.384Z,3.14
2023-02-01T09:43:04.485Z,3.08
2023-02-01T09:45:42.257Z,3.08
2023-02-01T09:48:17.560Z,3.27
2023-02-01T09:50:51.746Z,3.19
2023-02-01T09:53:32.244Z,3.04
2023-02-01T09:56:07.401Z,3.11
2023-02-01T09:58:41.533Z,3.25
2023-02-01T10:01:20.377Z,3.04
2023-02-01T10:03:49.191Z,3.03
2023-02-01T10:06:38.770Z,3.01
2023-02-01T10:09:36.179Z,3.02
2023-02-01T10:12:40.292Z,3.08
2023-02-01T10:15:27.341Z,3.03
2023-02-01T10:18:18.348Z,3.11
2023-02-01T10:20:59.585Z,2.97
2023-02-01T10:23:53.351Z,3.11
2023-02-01T10:26:24.348Z,3.14
2023-02-01T10:28:55.440Z,3.05
2023-02-01T10:31:28.867Z,3.11
2023-02-01T10:34:06.443Z,3.20
2023-02-01T10:36:38.155Z,3.22
2023-02-01T10:39:08.849Z,3.15
2023-02-01T10:41:40.073Z,3.18
2023-02-01T10:44:15.411Z,3.16
2023-02-01T10:46:45.028Z,3.28
2023-02-01T10:49:20.504Z,3.18
2023-02-01T10:51:54.011Z,3.22
2023-02-01T10:54:24.929Z,3.18
2023-02-01T10:56:54.348Z,3.27
2023-02-01T10:59:27.579Z,2.54
2023-02-01T11:02:20.723Z,3.27
2023-02-01T11:04:49.102Z,3.23
2023-02-01T11:07:26.794Z,3.27
2023-02-01T11:09:57.435Z,3.33
2023-02-01T11:12:32.540Z,3.38
2023-02-01T11:15:16.528Z,3.28
2023-02-01T11:17:48.468Z,3.41
2023-02-01T11:20:20.167Z,3.20
2023-02-01T11:22:50.384Z,3.00
2023-02-01T11:25:19.762Z,2.84
2023-02-01T11:27:54.766Z,2.76
2023-02-01T11:30:34.300Z,2.70
2023-02-01T11:33:06.918Z,2.72
2023-02-01T11:35:40.230Z,2.77
2023-02-01T11:38:22.831Z,2.83
2023-02-01T11:40:51.770Z,2.72
2023-02-01T11:43:26.662Z,2.75
2023-02-01T11:46:01.809Z,2.59
2023-02-01T11:48:33.471Z,2.93
2023-02-01T11:51:36.601Z,2.92
2023-02-01T11:54:34.003Z,2.95
2023-02-01T11:57:19.556Z,3.17
2023-02-01T12:00:26.113Z,3.05
2023-02-01T12:03:55.012Z,3.11
2023-02-01T12:06:33.433Z,3.27
2023-02-01T12:09:27.244Z,3.11
2023-02-01T12:12:05.529Z,3.16
2023-02-01T12:14:53.619Z,3.12
2023-02-01T12:17:54.403Z,3.24
2023-02-01T12:21:12.313Z,3.20
2023-02-01T12:24:11.868Z,3.04
2023-02-01T12:27:00.361Z,3.14
2023-02-01T12:29:50.734Z,3.01
2023-02-01T12:32:39.012Z,3.17
2023-02-01T12:35:39.959Z,3.16
2023-02-01T12:38:27.951Z,3.14
2023-02-01T12:41:12.001Z,2.97
2023-02-01T12:43:47.750Z,3.04
2023-02-01T12:46:23.573Z,3.13
2023-02-01T12:48:58.807Z,3.02
2023-02-01T12:51:31.651Z,3.12
2023-02-01T12:54:07.114Z,2.95
2023-02-01T12:56:42.105Z,1.57
2023-02-01T12:59:21.871Z,2.22
2023-02-01T13:01:59.971Z,2.42
2023-02-01T13:04:34.330Z,1.62
2023-02-01T13:07:10.919Z,1.82
2023-02-01T13:09:48.078Z,2.42
2023-02-01T13:12:21.321Z,2.54
2023-02-01T13:14:55.387Z,2.45
2023-02-01T13:17:28.861Z,2.59
2023-02-01T13:20:02.215Z,2.61
2023-02-01T13:22:36.907Z,3.33
2023-02-01T13:25:15.323Z,2.67
2023-02-01T13:27:43.588Z,2.70
2023-02-01T13:30:21.100Z,2.53
2023-02-01T13:33:53.974Z,2.81
2023-02-01T13:36:28.987Z,2.79
2023-02-01T13:39:37.510Z,3.00
2023-02-01T13:42:18.279Z,1.78
2023-02-01T13:44:50.731Z,2.94
2023-02-01T13:47:27.918Z,3.05
2023-02-01T13:49:59.672Z,3.08
2023-02-01T13:52:34.944Z,3.00
2023-02-01T13:55:28.242Z,2.88
2023-02-01T13:58:17.292Z,2.92
2023-02-01T14:00:46.672Z,2.36
2023-02-01T14:03:45.375Z,2.91
2023-02-01T14:06:43.245Z,2.92
2023-02-01T14:09:38.190Z,2.94
2023-02-01T14:12:49.384Z,2.93
2023-02-01T14:15:27.899Z,3.01
2023-02-01T14:17:57.127Z,2.93
2023-02-01T14:20:51.943Z,3.06
2023-02-01T14:23:25.320Z,2.95
2023-02-01T14:26:20.768Z,3.04
2023-02-01T14:28:56.464Z,3.08
2023-02-01T14:31:45.757Z,3.03
2023-02-01T14:34:34.000Z,3.05
2023-02-01T14:37:07.042Z,3.11
2023-02-01T14:39:51.897Z,2.98
2023-02-01T14:42:27.953Z,3.05
2023-02-01T14:45:19.473Z,2.23
2023-02-01T14:47:50.242Z,3.08
2023-02-01T14:50:30.233Z,3.08
2023-02-01T14:53:21.411Z,3.14
2023-02-01T14:55:53.901Z,3.11
2023-02-01T14:58:37.739Z,3.10
2023-02-01T15:01:18.762Z,3.24
2023-02-01T15:04:02.793Z,3.09
2023-02-01T15:06:38.356Z,2.98
2023-02-01T15:09:12.832Z,3.19
2023-02-01T15:12:03.487Z,3.15
2023-02-01T15:14:34.749Z,3.12
2023-02-01T15:17:03.435Z,3.08
2023-02-01T15:19:32.993Z,3.01
2023-02-01T15:22:04.232Z,3.08
2023-02-01T15:24:33.575Z,3.06
2023-02-01T15:27:07.270Z,2.84
2023-02-01T15:29:37.468Z,3.03
2023-02-01T15:32:07.133Z,2.99
2023-02-01T15:34:53.479Z,3.02
2023-02-01T15:37:24.097Z,3.01
2023-02-01T15:40:22.932Z,3.09
2023-02-01T15:42:55.254Z,2.86
2023-02-01T15:45:27.545Z,3.12
2023-02-01T15:47:58.603Z,3.06
2023-02-01T15:50:36.220Z,3.04
2023-02-01T15:53:06.089Z,3.10
2023-02-01T15:55:42.977Z,3.18
2023-02-01T15:58:20.041Z,2.98
2023-02-01T16:00:52.170Z,3.08
2023-02-01T16:03:36.538Z,3.06
2023-02-01T16:06:12.908Z,3.12
2023-02-01T16:08:53.528Z,3.02
2023-02-01T16:11:31.394Z,2.98
2023-02-01T16:13:59.942Z,3.08
2023-02-01T16:16:29.935Z,3.00
2023-02-01T16:19:00.032Z,2.99
2023-02-01T16:21:29.877Z,2.92
2023-02-01T16:23:58.420Z,2.96
2023-02-01T16:26:26.771Z,2.98
2023-02-01T16:28:55.028Z,2.97
2023-02-01T16:31:30.644Z,2.91
2023-02-01T16:34:02.575Z,2.93
2023-02-01T16:36:32.230Z,2.90
2023-02-01T16:39:03.859Z,3.00
2023-02-01T16:41:33.963Z,2.91
2023-02-01T16:44:02.149Z,2.90
2023-02-01T16:46:37.543Z,2.77
2023-02-01T16:49:05.760Z,2.93
2023-02-01T16:51:36.022Z,3.03
2023-02-01T16:54:05.594Z,2.97
2023-02-01T16:56:36.695Z,3.03
2023-02-01T16:59:15.226Z,2.95
2023-02-01T17:01:44.056Z,2.98
2023-02-01T17:04:17.562Z,2.86
2023-02-01T17:06:51.157Z,2.87
2023-02-01T17:09:19.473Z,3.03
2023-02-01T17:11:48.090Z,2.97
2023-02-01T17:14:19.227Z,2.92
2023-02-01T17:16:50.340Z,1.82
2023-02-01T17:19:24.386Z,2.93
2023-02-01T17:21:56.784Z,2.87
2023-02-01T17:24:35.882Z,2.91
2023-02-01T17:27:10.853Z,2.96
2023-02-01T17:29:39.081Z,3.02
2023-02-01T17:32:07.472Z,3.83
2023-02-01T17:34:35.733Z,3.07
2023-02-01T17:37:24.442Z,3.10
2023-02-01T17:39:58.576Z,3.03
2023-02-01T17:42:29.689Z,3.05
2023-02-01T17:45:01.482Z,3.07
2023-02-01T17:47:30.195Z,3.13
2023-02-01T17:49:58.424Z,3.08
2023-02-01T17:52:29.167Z,3.14
2023-02-01T17:54:57.717Z,3.16
2023-02-01T17:57:25.931Z,3.09
2023-02-01T17:59:54.123Z,3.16
2023-02-01T18:02:25.636Z,3.19
2023-02-01T18:04:53.966Z,3.16
2023-02-01T18:07:22.161Z,3.06
2023-02-01T18:09:51.695Z,3.19
2023-02-01T18:12:22.478Z,3.14
2023-02-01T18:14:50.779Z,3.12
2023-02-01T18:17:18.927Z,3.15
2023-02-01T18:19:47.154Z,3.18
2023-02-01T18:22:20.480Z,3.06
2023-02-01T18:24:48.710Z,3.05
2023-02-01T18:27:18.236Z,3.22
2023-02-01T18:29:46.452Z,3.13
2023-02-01T18:32:14.653Z,3.11
2023-02-01T18:34:42.892Z,3.25
2023-02-01T18:37:11.102Z,3.26
2023-02-01T18:39:39.529Z,3.33
2023-02-01T18:42:07.728Z,3.30
2023-02-01T18:44:39.247Z,3.27
2023-02-01T18:47:07.434Z,3.26
2023-02-01T18:49:37.510Z,3.27
2023-02-01T18:52:07.034Z,3.30
2023-02-01T18:54:35.221Z,3.31
2023-02-01T18:57:03.418Z,3.28
2023-02-01T18:59:31.631Z,3.33
2023-02-01T19:02:03.127Z,3.33
2023-02-01T19:04:31.451Z,3.31
2023-02-01T19:07:01.420Z,3.35
2023-02-01T19:09:35.303Z,3.34
2023-02-01T19:12:04.911Z,3.38
2023-02-01T19:14:33.288Z,3.33
2023-02-01T19:17:02.874Z,3.26
2023-02-01T19:19:31.072Z,3.28
2023-02-01T19:21:59.867Z,3.25
2023-02-01T19:24:29.689Z,3.41
2023-02-01T19:26:58.126Z,3.22
2023-02-01T19:29:26.415Z,3.31
2023-02-01T19:31:54.802Z,3.35
2023-02-01T19:34:24.563Z,3.32
2023-02-01T19:36:54.607Z,3.38
2023-02-01T19:39:25.045Z,3.34
2023-02-01T19:41:53.517Z,3.39
2023-02-01T19:44:21.893Z,3.41
2023-02-01T19:46:50.107Z,3.34
2023-02-01T19:49:18.339Z,3.29
2023-02-01T19:51:48.701Z,3.32
2023-02-01T19:54:17.746Z,3.36
2023-02-01T19:56:47.726Z,3.26
2023-02-01T19:59:16.522Z,3.36
2023-02-01T20:01:46.521Z,3.24
2023-02-01T20:04:15.613Z,3.34
2023-02-01T20:06:48.932Z,3.24
2023-02-01T20:09:18.782Z,3.26
2023-02-01T20:11:47.086Z,3.36
2023-02-01T20:14:15.967Z,3.29
2023-02-01T20:16:44.928Z,2.75
2023-02-01T20:19:13.658Z,3.34
2023-02-01T20:21:42.758Z,3.35
2023-02-01T20:24:16.866Z,3.35
2023-02-01T20:26:47.003Z,3.33
2023-02-01T20:29:15.181Z,3.43
2023-02-01T20:31:45.058Z,3.36
2023-02-01T20:34:14.377Z,3.43
2023-02-01T20:36:42.570Z,3.33
2023-02-01T20:39:11.561Z,3.44
2023-02-01T20:41:41.109Z,3.48
2023-02-01T20:44:09.328Z,1.42
2023-02-01T20:46:37.529Z,3.49
2023-02-01T20:49:05.847Z,3.51
2023-02-01T20:51:34.041Z,3.39
2023-02-01T20:54:02.266Z,3.42
2023-02-01T20:56:30.488Z,3.50
2023-02-01T20:59:03.375Z,3.44
2023-02-01T21:01:31.837Z,3.57
2023-02-01T21:04:00.418Z,3.41
2023-02-01T21:06:28.664Z,3.60
2023-02-01T21:08:56.815Z,3.54
2023-02-01T21:11:24.976Z,3.48
2023-02-01T21:13:53.147Z,3.42
2023-02-01T21:16:23.426Z,3.45
2023-02-01T21:18:53.699Z,3.64
2023-02-01T21:21:22.395Z,3.47
2023-02-01T21:23:52.794Z,3.47
2023-02-01T21:26:23.998Z,3.49
2023-02-01T21:28:54.902Z,3.50
2023-02-01T21:31:25.849Z,3.51
2023-02-01T21:33:54.472Z,3.54
2023-02-01T21:36:22.684Z,3.59
2023-02-01T21:38:54.434Z,3.57
2023-02-01T21:41:43.292Z,3.45
2023-02-01T21:44:14.574Z,3.47
2023-02-01T21:46:44.537Z,2.84
2023-02-01T21:49:13.183Z,3.58
2023-02-01T21:51:41.902Z,3.45
2023-02-01T21:54:12.086Z,3.29
2023-02-01T21:56:41.767Z,3.50
2023-02-01T21:59:11.343Z,3.38
2023-02-01T22:01:40.790Z,3.39
2023-02-01T22:04:11.099Z,3.34
2023-02-01T22:06:42.289Z,3.48
2023-02-01T22:09:20.773Z,3.34
2023-02-01T22:11:50.021Z,3.40
2023-02-01T22:14:19.014Z,3.37
2023-02-01T22:16:47.970Z,3.34
2023-02-01T22:19:17.556Z,3.33
2023-02-01T22:21:47.996Z,3.42
2023-02-01T22:24:18.369Z,3.54
2023-02-01T22:26:46.564Z,3.47
2023-02-01T22:29:14.986Z,3.35
2023-02-01T22:31:43.637Z,2.58
2023-02-01T22:34:12.766Z,3.41
2023-02-01T22:36:42.975Z,3.46
2023-02-01T22:39:11.771Z,3.39
2023-02-01T22:41:40.029Z,3.45
2023-02-01T22:44:08.571Z,3.45
2023-02-01T22:46:36.804Z,3.47
2023-02-01T22:49:05.772Z,3.49
2023-02-01T22:51:34.450Z,3.49
2023-02-01T22:54:04.591Z,3.32
2023-02-01T22:56:35.856Z,3.41
2023-02-01T22:59:08.350Z,3.49
2023-02-01T23:01:36.914Z,3.56
2023-02-01T23:04:17.010Z,3.43
2023-02-01T23:06:51.363Z,3.56
2023-02-01T23:09:25.755Z,3.45
2023-02-01T23:11:55.508Z,3.44
2023-02-01T23:14:23.868Z,2.31
2023-02-01T23:16:52.264Z,3.52
2023-02-01T23:19:20.626Z,3.49
2023-02-01T23:21:49.606Z,3.53
2023-02-01T23:24:18.096Z,3.46
2023-02-01T23:26:47.670Z,3.40
2023-02-01T23:29:19.384Z,3.47
2023-02-01T23:31:47.665Z,3.34
2023-02-01T23:34:16.221Z,3.28
2023-02-01T23:36:44.452Z,3.41
2023-02-01T23:39:12.903Z,2.63
2023-02-01T23:41:41.116Z,3.15
2023-02-01T23:44:11.059Z,3.21
2023-02-01T23:46:44.472Z,2.49
2023-02-01T23:49:12.860Z,3.15
2023-02-01T23:51:41.934Z,3.05
2023-02-01T23:54:12.487Z,3.00
2023-02-01T23:56:43.112Z,2.99
2023-02-01T23:59:15.204Z,2.84
